sensor_id;sensor_type;location;lat;lon;timestamp;pressure;altitude;pressure_sealevel;temperature;humidity
55068;BME280;40965;52.368;9.712;2022-10-24T00:00:05;100110.25;;;13.54;100.00
55068;BME280;40965;52.368;9.712;2022-10-24T00:02:53;100121.09;;;13.43;100.00
55068;BME280;40965;52.368;9.712;2022-10-24T00:05:43;100111.59;;;13.39;100.00
55068;BME280;40965;52.368;9.712;2022-10-24T00:08:33;100121.19;;;13.40;100.00
55068;BME280;40965;52.368;9.712;2022-10-24T00:11:24;100124.59;;;13.44;100.00
55068;BME280;40965;52.368;9.712;2022-10-24T00:14:13;100126.31;;;13.45;100.00
55068;BME280;40965;52.368;9.712;2022-10-24T00:17:00;100117.53;;;13.46;100.00
55068;BME280;40965;52.368;9.712;2022-10-24T00:19:47;100125.59;;;13.39;100.00
55068;BME280;40965;52.368;9.712;2022-10-24T00:22:34;100124.19;;;13.26;100.00
55068;BME280;40965;52.368;9.712;2022-10-24T00:25:21;100123.63;;;13.15;100.00
55068;BME280;40965;52.368;9.712;2022-10-24T00:28:07;100128.03;;;13.14;100.00
55068;BME280;40965;52.368;9.712;2022-10-24T00:30:54;100134.22;;;13.12;100.00
55068;BME280;40965;52.368;9.712;2022-10-24T00:33:42;100122.09;;;13.06;100.00
55068;BME280;40965;52.368;9.712;2022-10-24T00:36:30;100133.72;;;12.99;100.00
55068;BME280;40965;52.368;9.712;2022-10-24T00:39:17;100129.56;;;12.90;100.00
55068;BME280;40965;52.368;9.712;2022-10-24T00:42:04;100133.97;;;12.88;100.00
55068;BME280;40965;52.368;9.712;2022-10-24T00:44:51;100129.75;;;12.82;100.00
55068;BME280;40965;52.368;9.712;2022-10-24T00:47:38;100127.13;;;12.82;100.00
55068;BME280;40965;52.368;9.712;2022-10-24T00:50:28;100124.66;;;12.78;100.00
55068;BME280;40965;52.368;9.712;2022-10-24T00:53:15;100118.47;;;12.79;100.00
55068;BME280;40965;52.368;9.712;2022-10-24T00:56:04;100115.88;;;12.77;100.00
55068;BME280;40965;52.368;9.712;2022-10-24T00:58:52;100111.63;;;12.73;100.00
55068;BME280;40965;52.368;9.712;2022-10-24T01:01:41;100104.63;;;12.72;100.00
55068;BME280;40965;52.368;9.712;2022-10-24T01:04:29;100108.31;;;12.66;100.00
55068;BME280;40965;52.368;9.712;2022-10-24T01:10:53;100118.06;;;12.61;100.00
55068;BME280;40965;52.368;9.712;2022-10-24T01:13:59;100124.34;;;12.55;100.00
55068;BME280;40965;52.368;9.712;2022-10-24T01:17:20;100114.75;;;12.54;100.00
55068;BME280;40965;52.368;9.712;2022-10-24T01:20:34;100120.88;;;12.53;100.00
55068;BME280;40965;52.368;9.712;2022-10-24T01:27:02;100125.44;;;12.47;100.00
55068;BME280;40965;52.368;9.712;2022-10-24T01:30:04;100116.56;;;12.51;100.00
55068;BME280;40965;52.368;9.712;2022-10-24T01:33:04;100102.34;;;12.60;100.00
55068;BME280;40965;52.368;9.712;2022-10-24T01:36:00;100092.53;;;12.66;100.00
55068;BME280;40965;52.368;9.712;2022-10-24T01:38:57;100094.19;;;12.70;100.00
55068;BME280;40965;52.368;9.712;2022-10-24T01:41:46;100103.84;;;12.68;100.00
55068;BME280;40965;52.368;9.712;2022-10-24T01:44:39;100098.59;;;12.70;100.00
55068;BME280;40965;52.368;9.712;2022-10-24T01:47:33;100082.63;;;12.78;100.00
55068;BME280;40965;52.368;9.712;2022-10-24T01:50:28;100088.81;;;12.75;100.00
55068;BME280;40965;52.368;9.712;2022-10-24T01:53:15;100092.44;;;12.69;100.00
55068;BME280;40965;52.368;9.712;2022-10-24T01:56:02;100079.53;;;12.62;100.00
55068;BME280;40965;52.368;9.712;2022-10-24T01:58:49;100088.38;;;12.57;100.00
55068;BME280;40965;52.368;9.712;2022-10-24T02:01:37;100085.06;;;12.51;100.00
55068;BME280;40965;52.368;9.712;2022-10-24T02:04:26;100086.84;;;12.49;100.00
55068;BME280;40965;52.368;9.712;2022-10-24T02:07:17;100083.28;;;12.51;100.00
55068;BME280;40965;52.368;9.712;2022-10-24T02:10:27;100076.41;;;12.47;100.00
55068;BME280;40965;52.368;9.712;2022-10-24T02:16:16;100090.72;;;12.35;100.00
55068;BME280;40965;52.368;9.712;2022-10-24T02:19:04;100069.66;;;12.37;100.00
55068;BME280;40965;52.368;9.712;2022-10-24T02:24:59;100049.69;;;12.31;100.00
55068;BME280;40965;52.368;9.712;2022-10-24T02:27:54;100041.91;;;12.28;100.00
55068;BME280;40965;52.368;9.712;2022-10-24T02:30:58;100033.06;;;12.32;100.00
55068;BME280;40965;52.368;9.712;2022-10-24T02:33:48;100047.94;;;12.32;100.00
55068;BME280;40965;52.368;9.712;2022-10-24T02:36:38;100053.25;;;12.29;100.00
55068;BME280;40965;52.368;9.712;2022-10-24T02:39:27;100061.97;;;12.31;100.00
55068;BME280;40965;52.368;9.712;2022-10-24T02:42:15;100052.44;;;12.27;100.00
55068;BME280;40965;52.368;9.712;2022-10-24T02:45:04;100045.47;;;12.26;100.00
55068;BME280;40965;52.368;9.712;2022-10-24T02:47:56;100042.72;;;12.30;100.00
55068;BME280;40965;52.368;9.712;2022-10-24T02:50:47;100039.28;;;12.28;100.00
55068;BME280;40965;52.368;9.712;2022-10-24T02:53:35;100051.47;;;12.31;100.00
55068;BME280;40965;52.368;9.712;2022-10-24T02:56:22;100050.41;;;12.38;100.00
55068;BME280;40965;52.368;9.712;2022-10-24T02:59:09;100042.41;;;12.43;100.00
55068;BME280;40965;52.368;9.712;2022-10-24T03:01:56;100040.84;;;12.35;100.00
55068;BME280;40965;52.368;9.712;2022-10-24T03:04:43;100029.56;;;12.32;100.00
55068;BME280;40965;52.368;9.712;2022-10-24T03:07:30;100035.63;;;12.34;100.00
55068;BME280;40965;52.368;9.712;2022-10-24T03:10:17;100044.34;;;12.36;100.00
55068;BME280;40965;52.368;9.712;2022-10-24T03:13:05;100041.78;;;12.33;100.00
55068;BME280;40965;52.368;9.712;2022-10-24T03:15:55;100039.19;;;12.31;100.00
55068;BME280;40965;52.368;9.712;2022-10-24T03:18:42;100034.81;;;12.32;100.00
55068;BME280;40965;52.368;9.712;2022-10-24T03:21:29;100021.31;;;12.46;100.00
55068;BME280;40965;52.368;9.712;2022-10-24T03:24:16;100028.06;;;12.56;100.00
55068;BME280;40965;52.368;9.712;2022-10-24T03:27:03;100031.72;;;12.50;100.00
55068;BME280;40965;52.368;9.712;2022-10-24T03:29:50;100025.75;;;12.44;100.00
55068;BME280;40965;52.368;9.712;2022-10-24T03:32:36;100024.19;;;12.36;100.00
55068;BME280;40965;52.368;9.712;2022-10-24T03:35:23;100015.50;;;12.34;100.00
55068;BME280;40965;52.368;9.712;2022-10-24T03:38:10;100018.78;;;12.43;100.00
55068;BME280;40965;52.368;9.712;2022-10-24T03:40:57;100019.78;;;12.38;100.00
55068;BME280;40965;52.368;9.712;2022-10-24T03:43:44;100032.78;;;12.43;100.00
55068;BME280;40965;52.368;9.712;2022-10-24T03:46:31;100024.00;;;12.44;100.00
55068;BME280;40965;52.368;9.712;2022-10-24T03:49:17;100032.66;;;12.46;100.00
55068;BME280;40965;52.368;9.712;2022-10-24T03:52:04;100031.72;;;12.50;100.00
55068;BME280;40965;52.368;9.712;2022-10-24T03:54:51;100033.56;;;12.47;100.00
55068;BME280;40965;52.368;9.712;2022-10-24T03:57:38;100041.38;;;12.48;100.00
55068;BME280;40965;52.368;9.712;2022-10-24T04:00:25;100032.72;;;12.45;100.00
55068;BME280;40965;52.368;9.712;2022-10-24T04:03:13;100038.22;;;12.35;100.00
55068;BME280;40965;52.368;9.712;2022-10-24T04:06:00;100026.78;;;12.38;100.00
55068;BME280;40965;52.368;9.712;2022-10-24T04:08:46;100031.00;;;12.44;100.00
55068;BME280;40965;52.368;9.712;2022-10-24T04:11:34;100025.69;;;12.47;100.00
55068;BME280;40965;52.368;9.712;2022-10-24T04:14:20;100034.34;;;12.50;100.00
55068;BME280;40965;52.368;9.712;2022-10-24T04:17:07;100029.88;;;12.52;100.00
55068;BME280;40965;52.368;9.712;2022-10-24T04:19:54;100027.38;;;12.49;100.00
55068;BME280;40965;52.368;9.712;2022-10-24T04:22:41;100038.00;;;12.43;100.00
55068;BME280;40965;52.368;9.712;2022-10-24T04:25:28;100035.44;;;12.41;100.00
55068;BME280;40965;52.368;9.712;2022-10-24T04:28:14;100030.19;;;12.41;100.00
55068;BME280;40965;52.368;9.712;2022-10-24T04:31:01;100036.13;;;12.48;100.00
55068;BME280;40965;52.368;9.712;2022-10-24T04:33:48;100031.91;;;12.43;100.00
55068;BME280;40965;52.368;9.712;2022-10-24T04:36:35;100022.31;;;12.41;100.00
55068;BME280;40965;52.368;9.712;2022-10-24T04:39:22;100028.34;;;12.45;100.00
55068;BME280;40965;52.368;9.712;2022-10-24T04:42:09;100028.34;;;12.45;100.00
55068;BME280;40965;52.368;9.712;2022-10-24T04:44:55;100019.63;;;12.43;100.00
55068;BME280;40965;52.368;9.712;2022-10-24T04:47:42;100031.78;;;12.47;100.00
55068;BME280;40965;52.368;9.712;2022-10-24T04:50:29;100023.06;;;12.47;100.00
55068;BME280;40965;52.368;9.712;2022-10-24T04:53:19;100025.69;;;12.47;100.00
55068;BME280;40965;52.368;9.712;2022-10-24T04:56:09;100024.69;;;12.51;100.00
55068;BME280;40965;52.368;9.712;2022-10-24T04:58:56;100030.88;;;12.48;100.00
55068;BME280;40965;52.368;9.712;2022-10-24T05:01:42;100020.44;;;12.47;100.00
55068;BME280;40965;52.368;9.712;2022-10-24T05:04:29;100035.19;;;12.51;100.00
55068;BME280;40965;52.368;9.712;2022-10-24T05:07:16;100037.84;;;12.49;100.00
55068;BME280;40965;52.368;9.712;2022-10-24T05:10:05;100031.72;;;12.49;100.00
55068;BME280;40965;52.368;9.712;2022-10-24T05:12:52;100023.75;;;12.53;100.00
55068;BME280;40965;52.368;9.712;2022-10-24T05:15:39;100021.91;;;12.57;100.00
55068;BME280;40965;52.368;9.712;2022-10-24T05:18:26;100021.84;;;12.58;100.00
55068;BME280;40965;52.368;9.712;2022-10-24T05:21:12;100017.66;;;12.53;100.00
55068;BME280;40965;52.368;9.712;2022-10-24T05:23:59;100011.44;;;12.55;100.00
55068;BME280;40965;52.368;9.712;2022-10-24T05:26:46;100005.38;;;12.53;100.00
55068;BME280;40965;52.368;9.712;2022-10-24T05:29:33;99998.28;;;12.57;100.00
55068;BME280;40965;52.368;9.712;2022-10-24T05:32:22;99998.06;;;12.63;100.00
55068;BME280;40965;52.368;9.712;2022-10-24T05:35:09;100001.41;;;12.70;100.00
55068;BME280;40965;52.368;9.712;2022-10-24T05:37:56;100003.25;;;12.66;100.00
55068;BME280;40965;52.368;9.712;2022-10-24T05:40:43;100008.69;;;12.60;100.00
55068;BME280;40965;52.368;9.712;2022-10-24T05:43:32;100006.94;;;12.61;100.00
55068;BME280;40965;52.368;9.712;2022-10-24T05:46:19;100002.66;;;12.56;100.00
55068;BME280;40965;52.368;9.712;2022-10-24T05:49:05;100005.28;;;12.56;100.00
55068;BME280;40965;52.368;9.712;2022-10-24T05:51:52;100009.72;;;12.54;100.00
55068;BME280;40965;52.368;9.712;2022-10-24T05:54:39;100010.34;;;12.63;100.00
55068;BME280;40965;52.368;9.712;2022-10-24T05:57:26;100007.94;;;12.55;100.00
55068;BME280;40965;52.368;9.712;2022-10-24T06:00:15;100005.41;;;12.52;100.00
55068;BME280;40965;52.368;9.712;2022-10-24T06:03:03;100004.63;;;12.48;100.00
55068;BME280;40965;52.368;9.712;2022-10-24T06:05:52;100015.81;;;12.55;100.00
55068;BME280;40965;52.368;9.712;2022-10-24T06:08:39;100021.84;;;12.58;100.00
55068;BME280;40965;52.368;9.712;2022-10-24T06:11:26;100015.75;;;12.58;100.00
55068;BME280;40965;52.368;9.712;2022-10-24T06:14:12;100024.44;;;12.60;100.00
55068;BME280;40965;52.368;9.712;2022-10-24T06:17:01;100019.06;;;12.65;100.00
55068;BME280;40965;52.368;9.712;2022-10-24T06:19:49;100011.72;;;12.76;100.00
55068;BME280;40965;52.368;9.712;2022-10-24T06:22:36;100004.78;;;12.73;100.00
55068;BME280;40965;52.368;9.712;2022-10-24T06:25:23;100010.19;;;12.69;100.00
55068;BME280;40965;52.368;9.712;2022-10-24T06:28:10;100007.63;;;12.67;100.00
55068;BME280;40965;52.368;9.712;2022-10-24T06:30:59;100008.88;;;12.85;100.00
55068;BME280;40965;52.368;9.712;2022-10-24T06:33:47;100012.91;;;12.97;100.00
55068;BME280;40965;52.368;9.712;2022-10-24T06:36:34;100009.28;;;13.01;100.00
55068;BME280;40965;52.368;9.712;2022-10-24T06:39:21;100016.22;;;13.04;100.00
55068;BME280;40965;52.368;9.712;2022-10-24T06:42:08;100013.25;;;13.15;100.00
55068;BME280;40965;52.368;9.712;2022-10-24T06:44:55;100026.34;;;13.16;100.00
55068;BME280;40965;52.368;9.712;2022-10-24T06:47:42;100031.38;;;13.24;100.00
55068;BME280;40965;52.368;9.712;2022-10-24T06:50:28;100037.22;;;13.34;100.00
55068;BME280;40965;52.368;9.712;2022-10-24T06:53:15;100038.97;;;13.33;100.00
55068;BME280;40965;52.368;9.712;2022-10-24T06:56:04;100024.00;;;13.37;100.00
55068;BME280;40965;52.368;9.712;2022-10-24T06:58:51;100041.41;;;13.41;100.00
55068;BME280;40965;52.368;9.712;2022-10-24T07:01:38;100042.00;;;13.51;100.00
55068;BME280;40965;52.368;9.712;2022-10-24T07:04:25;100045.28;;;13.57;100.00
55068;BME280;40965;52.368;9.712;2022-10-24T07:07:16;100045.19;;;13.61;100.00
55068;BME280;40965;52.368;9.712;2022-10-24T07:10:05;100050.38;;;13.64;100.00
55068;BME280;40965;52.368;9.712;2022-10-24T07:12:52;100049.34;;;13.68;100.00
55068;BME280;40965;52.368;9.712;2022-10-24T07:15:39;100043.81;;;13.77;100.00
55068;BME280;40965;52.368;9.712;2022-10-24T07:18:26;100040.03;;;13.86;100.00
55068;BME280;40965;52.368;9.712;2022-10-24T07:21:16;100042.28;;;13.97;100.00
55068;BME280;40965;52.368;9.712;2022-10-24T07:24:06;100060.34;;;14.07;100.00
55068;BME280;40965;52.368;9.712;2022-10-24T07:26:53;100060.97;;;14.16;100.00
55068;BME280;40965;52.368;9.712;2022-10-24T07:29:40;100058.88;;;14.26;100.00
55068;BME280;40965;52.368;9.712;2022-10-24T07:32:26;100061.13;;;14.38;100.00
55068;BME280;40965;52.368;9.712;2022-10-24T07:35:13;100057.22;;;14.48;100.00
55068;BME280;40965;52.368;9.712;2022-10-24T07:38:00;100057.66;;;14.61;100.00
55068;BME280;40965;52.368;9.712;2022-10-24T07:40:47;100070.59;;;14.69;100.00
55068;BME280;40965;52.368;9.712;2022-10-24T07:43:34;100059.84;;;14.75;100.00
55068;BME280;40965;52.368;9.712;2022-10-24T07:46:21;100064.84;;;14.83;100.00
55068;BME280;40965;52.368;9.712;2022-10-24T07:49:08;100065.25;;;14.96;100.00
55068;BME280;40965;52.368;9.712;2022-10-24T07:51:55;100066.53;;;15.09;100.00
55068;BME280;40965;52.368;9.712;2022-10-24T07:54:42;100064.56;;;15.14;100.00
55068;BME280;40965;52.368;9.712;2022-10-24T07:57:29;100065.13;;;15.22;100.00
55068;BME280;40965;52.368;9.712;2022-10-24T08:00:16;100073.56;;;15.32;100.00
55068;BME280;40965;52.368;9.712;2022-10-24T08:03:03;100063.56;;;15.41;100.00
55068;BME280;40965;52.368;9.712;2022-10-24T08:05:50;100061.31;;;15.53;100.00
55068;BME280;40965;52.368;9.712;2022-10-24T08:08:41;100051.22;;;15.65;100.00
55068;BME280;40965;52.368;9.712;2022-10-24T08:11:28;100064.88;;;15.75;100.00
55068;BME280;40965;52.368;9.712;2022-10-24T08:14:17;100063.78;;;15.82;100.00
55068;BME280;40965;52.368;9.712;2022-10-24T08:17:03;100075.59;;;15.94;100.00
55068;BME280;40965;52.368;9.712;2022-10-24T08:19:50;100058.41;;;16.06;100.00
55068;BME280;40965;52.368;9.712;2022-10-24T08:22:38;100054.47;;;16.16;100.00
55068;BME280;40965;52.368;9.712;2022-10-24T08:25:26;100048.06;;;16.21;99.34
55068;BME280;40965;52.368;9.712;2022-10-24T08:28:13;100049.72;;;16.24;97.30
55068;BME280;40965;52.368;9.712;2022-10-24T08:31:06;100056.47;;;16.31;94.73
55068;BME280;40965;52.368;9.712;2022-10-24T08:33:55;100058.97;;;16.34;94.65
55068;BME280;40965;52.368;9.712;2022-10-24T08:36:42;100058.78;;;16.39;94.78
55068;BME280;40965;52.368;9.712;2022-10-24T08:39:29;100041.41;;;16.54;89.25
55068;BME280;40965;52.368;9.712;2022-10-24T08:42:17;100052.22;;;16.68;89.20
55068;BME280;40965;52.368;9.712;2022-10-24T08:45:10;100052.75;;;16.77;88.89
55068;BME280;40965;52.368;9.712;2022-10-24T08:48:04;100053.34;;;16.83;88.85
55068;BME280;40965;52.368;9.712;2022-10-24T08:54:24;100064.19;;;16.98;86.39
55068;BME280;40965;52.368;9.712;2022-10-24T08:57:27;100062.03;;;17.06;84.74
55068;BME280;40965;52.368;9.712;2022-10-24T09:00:21;100054.75;;;17.11;84.30
55068;BME280;40965;52.368;9.712;2022-10-24T09:06:30;100058.19;;;17.13;82.86
55068;BME280;40965;52.368;9.712;2022-10-24T09:09:22;100050.38;;;17.10;83.65
55068;BME280;40965;52.368;9.712;2022-10-24T09:12:13;100040.13;;;17.04;83.48
55068;BME280;40965;52.368;9.712;2022-10-24T09:15:13;100041.53;;;17.11;81.32
55068;BME280;40965;52.368;9.712;2022-10-24T09:18:02;100048.63;;;17.11;81.68
55068;BME280;40965;52.368;9.712;2022-10-24T09:20:50;100051.38;;;17.08;81.37
55068;BME280;40965;52.368;9.712;2022-10-24T09:23:38;100052.47;;;17.03;81.95
55068;BME280;40965;52.368;9.712;2022-10-24T09:26:27;100043.81;;;17.00;81.51
55068;BME280;40965;52.368;9.712;2022-10-24T09:29:16;100050.16;;;16.96;81.68
55068;BME280;40965;52.368;9.712;2022-10-24T09:32:03;100046.91;;;16.89;82.54
55068;BME280;40965;52.368;9.712;2022-10-24T09:34:50;100058.25;;;16.93;81.45
55068;BME280;40965;52.368;9.712;2022-10-24T09:37:46;100051.16;;;16.93;82.29
55068;BME280;40965;52.368;9.712;2022-10-24T09:40:36;100066.69;;;17.01;81.17
55068;BME280;40965;52.368;9.712;2022-10-24T09:43:37;100063.97;;;17.02;81.18
55068;BME280;40965;52.368;9.712;2022-10-24T09:46:38;100062.31;;;17.00;82.02
55068;BME280;40965;52.368;9.712;2022-10-24T09:49:38;100068.22;;;17.07;81.76
55068;BME280;40965;52.368;9.712;2022-10-24T09:52:27;100065.88;;;17.19;80.55
55068;BME280;40965;52.368;9.712;2022-10-24T09:55:17;100071.66;;;17.28;79.77
55068;BME280;40965;52.368;9.712;2022-10-24T09:58:17;100069.13;;;17.25;79.35
55068;BME280;40965;52.368;9.712;2022-10-24T10:04:03;100077.13;;;17.23;79.58
55068;BME280;40965;52.368;9.712;2022-10-24T10:06:51;100072.50;;;17.28;78.69
55068;BME280;40965;52.368;9.712;2022-10-24T10:09:47;100082.66;;;17.38;78.67
55068;BME280;40965;52.368;9.712;2022-10-24T10:12:40;100070.78;;;17.65;75.21
55068;BME280;40965;52.368;9.712;2022-10-24T10:21:23;100073.41;;;18.39;71.67
55068;BME280;40965;52.368;9.712;2022-10-24T10:27:27;100082.22;;;18.57;70.46
55068;BME280;40965;52.368;9.712;2022-10-24T10:30:21;100083.94;;;18.58;69.38
55068;BME280;40965;52.368;9.712;2022-10-24T10:33:18;100077.31;;;18.49;69.74
55068;BME280;40965;52.368;9.712;2022-10-24T10:36:18;100084.19;;;18.35;70.73
55068;BME280;40965;52.368;9.712;2022-10-24T10:42:45;100089.38;;;18.19;71.57
55068;BME280;40965;52.368;9.712;2022-10-24T10:45:40;100093.34;;;18.28;71.78
55068;BME280;40965;52.368;9.712;2022-10-24T10:48:45;100095.84;;;18.31;70.41
55068;BME280;40965;52.368;9.712;2022-10-24T10:51:49;100094.81;;;18.34;71.01
55068;BME280;40965;52.368;9.712;2022-10-24T10:54:54;100096.47;;;18.37;70.06
55068;BME280;40965;52.368;9.712;2022-10-24T11:02:20;100109.16;;;18.12;71.32
55068;BME280;40965;52.368;9.712;2022-10-24T11:11:28;100116.81;;;18.54;66.95
55068;BME280;40965;52.368;9.712;2022-10-24T11:14:29;100100.91;;;18.54;67.24
55068;BME280;40965;52.368;9.712;2022-10-24T11:17:23;100102.53;;;18.56;66.14
55068;BME280;40965;52.368;9.712;2022-10-24T11:20:18;100113.09;;;18.58;65.84
55068;BME280;40965;52.368;9.712;2022-10-24T11:29:59;100113.84;;;18.60;63.83
55068;BME280;40965;52.368;9.712;2022-10-24T11:32:54;100110.03;;;18.65;63.26
55068;BME280;40965;52.368;9.712;2022-10-24T11:39:43;100114.09;;;18.55;61.85
55068;BME280;40965;52.368;9.712;2022-10-24T11:45:54;100114.78;;;18.41;62.03
55068;BME280;40965;52.368;9.712;2022-10-24T11:49:07;100108.03;;;18.35;62.34
55068;BME280;40965;52.368;9.712;2022-10-24T11:52:22;100115.25;;;18.32;62.51
55068;BME280;40965;52.368;9.712;2022-10-24T11:55:16;100116.03;;;18.34;62.47
55068;BME280;40965;52.368;9.712;2022-10-24T11:58:11;100110.50;;;18.39;62.66
55068;BME280;40965;52.368;9.712;2022-10-24T12:01:17;100109.50;;;18.41;61.87
55068;BME280;40965;52.368;9.712;2022-10-24T12:08:04;100086.34;;;18.27;62.10
55068;BME280;40965;52.368;9.712;2022-10-24T12:11:05;100119.84;;;18.28;62.06
55068;BME280;40965;52.368;9.712;2022-10-24T12:17:22;100113.06;;;18.23;62.18
55068;BME280;40965;52.368;9.712;2022-10-24T12:20:19;100119.06;;;18.26;62.01
55068;BME280;40965;52.368;9.712;2022-10-24T12:23:17;100112.47;;;18.52;61.23
55068;BME280;40965;52.368;9.712;2022-10-24T12:26:17;100119.38;;;18.73;60.17
55068;BME280;40965;52.368;9.712;2022-10-24T12:29:06;100108.88;;;18.71;60.11
55068;BME280;40965;52.368;9.712;2022-10-24T12:32:43;100113.38;;;18.69;60.65
55068;BME280;40965;52.368;9.712;2022-10-24T12:53:32;100160.88;;;18.56;59.18
55068;BME280;40965;52.368;9.712;2022-10-24T12:56:23;100150.44;;;18.53;58.83
55068;BME280;40965;52.368;9.712;2022-10-24T12:59:21;100140.91;;;18.49;58.92
55068;BME280;40965;52.368;9.712;2022-10-24T13:05:10;100146.31;;;18.47;59.64
55068;BME280;40965;52.368;9.712;2022-10-24T13:21:35;100156.03;;;18.10;62.39
55068;BME280;40965;52.368;9.712;2022-10-24T13:24:37;100150.09;;;18.05;62.83
55068;BME280;40965;52.368;9.712;2022-10-24T13:27:28;100148.34;;;18.06;62.78
55068;BME280;40965;52.368;9.712;2022-10-24T13:30:24;100154.03;;;17.96;63.26
55068;BME280;40965;52.368;9.712;2022-10-24T13:36:16;100166.19;;;17.81;63.96
55068;BME280;40965;52.368;9.712;2022-10-24T13:39:10;100159.69;;;17.69;64.66
55068;BME280;40965;52.368;9.712;2022-10-24T13:42:05;100159.97;;;17.63;65.46
55068;BME280;40965;52.368;9.712;2022-10-24T13:45:22;100158.59;;;17.55;65.88
55068;BME280;40965;52.368;9.712;2022-10-24T13:48:32;100163.97;;;17.53;65.64
55068;BME280;40965;52.368;9.712;2022-10-24T13:51:24;100144.69;;;17.51;65.33
55068;BME280;40965;52.368;9.712;2022-10-24T13:54:24;100158.84;;;17.50;65.44
55068;BME280;40965;52.368;9.712;2022-10-24T13:57:27;100165.88;;;17.49;65.67
55068;BME280;40965;52.368;9.712;2022-10-24T14:00:27;100151.53;;;17.55;65.66
55068;BME280;40965;52.368;9.712;2022-10-24T14:03:18;100155.69;;;17.61;65.56
55068;BME280;40965;52.368;9.712;2022-10-24T14:06:07;100148.69;;;17.79;64.98
55068;BME280;40965;52.368;9.712;2022-10-24T14:08:56;100140.13;;;17.91;64.64
55068;BME280;40965;52.368;9.712;2022-10-24T14:11:47;100137.56;;;17.90;64.63
55068;BME280;40965;52.368;9.712;2022-10-24T14:14:38;100138.09;;;17.79;65.02
55068;BME280;40965;52.368;9.712;2022-10-24T14:17:28;100133.72;;;17.78;64.55
55068;BME280;40965;52.368;9.712;2022-10-24T14:20:21;100144.38;;;17.76;64.49
55068;BME280;40965;52.368;9.712;2022-10-24T14:23:37;100127.22;;;17.85;63.99
55068;BME280;40965;52.368;9.712;2022-10-24T14:26:27;100143.81;;;17.89;63.15
55068;BME280;40965;52.368;9.712;2022-10-24T14:29:25;100144.81;;;17.86;62.94
55068;BME280;40965;52.368;9.712;2022-10-24T14:32:16;100149.59;;;17.78;63.35
55068;BME280;40965;52.368;9.712;2022-10-24T14:35:03;100157.78;;;17.73;63.58
55068;BME280;40965;52.368;9.712;2022-10-24T14:37:50;100142.94;;;17.69;63.90
55068;BME280;40965;52.368;9.712;2022-10-24T14:40:37;100156.56;;;17.61;64.54
55068;BME280;40965;52.368;9.712;2022-10-24T14:43:27;100149.75;;;17.56;64.46
55068;BME280;40965;52.368;9.712;2022-10-24T14:55:18;100152.41;;;17.75;62.95
55068;BME280;40965;52.368;9.712;2022-10-24T14:58:23;100140.44;;;17.66;62.07
55068;BME280;40965;52.368;9.712;2022-10-24T15:01:18;100141.06;;;17.52;63.19
55068;BME280;40965;52.368;9.712;2022-10-24T15:04:05;100141.81;;;17.56;63.36
55068;BME280;40965;52.368;9.712;2022-10-24T15:06:54;100149.66;;;17.57;64.06
55068;BME280;40965;52.368;9.712;2022-10-24T15:09:55;100141.22;;;17.49;64.54
55068;BME280;40965;52.368;9.712;2022-10-24T15:12:52;100146.59;;;17.47;65.21
55068;BME280;40965;52.368;9.712;2022-10-24T15:15:49;100150.97;;;17.48;65.33
55068;BME280;40965;52.368;9.712;2022-10-24T15:18:41;100149.44;;;17.43;65.88
55068;BME280;40965;52.368;9.712;2022-10-24T15:21:38;100143.50;;;17.38;66.13
55068;BME280;40965;52.368;9.712;2022-10-24T15:24:26;100137.28;;;17.19;67.41
55068;BME280;40965;52.368;9.712;2022-10-24T15:27:26;100161.88;;;17.01;67.87
55068;BME280;40965;52.368;9.712;2022-10-24T15:30:36;100157.28;;;16.84;68.62
55068;BME280;40965;52.368;9.712;2022-10-24T15:33:23;100160.66;;;16.67;69.62
55068;BME280;40965;52.368;9.712;2022-10-24T15:36:25;100156.75;;;16.55;70.07
55068;BME280;40965;52.368;9.712;2022-10-24T15:39:20;100178.56;;;16.38;71.23
55068;BME280;40965;52.368;9.712;2022-10-24T15:42:09;100180.78;;;16.27;72.06
55068;BME280;40965;52.368;9.712;2022-10-24T15:44:56;100176.22;;;16.08;73.04
55068;BME280;40965;52.368;9.712;2022-10-24T15:47:43;100176.53;;;16.00;74.09
55068;BME280;40965;52.368;9.712;2022-10-24T15:50:30;100175.44;;;15.84;75.06
55068;BME280;40965;52.368;9.712;2022-10-24T15:53:19;100181.34;;;15.65;77.04
55068;BME280;40965;52.368;9.712;2022-10-24T15:56:07;100186.41;;;15.48;78.46
55068;BME280;40965;52.368;9.712;2022-10-24T15:58:55;100195.34;;;15.44;79.88
55068;BME280;40965;52.368;9.712;2022-10-24T16:02:02;100189.72;;;15.29;81.25
55068;BME280;40965;52.368;9.712;2022-10-24T16:04:49;100178.63;;;15.19;82.46
55068;BME280;40965;52.368;9.712;2022-10-24T16:07:36;100190.31;;;15.12;82.65
55068;BME280;40965;52.368;9.712;2022-10-24T16:10:23;100196.38;;;15.14;83.84
55068;BME280;40965;52.368;9.712;2022-10-24T16:13:14;100178.19;;;15.07;84.33
55068;BME280;40965;52.368;9.712;2022-10-24T16:16:00;100198.19;;;15.14;83.57
55068;BME280;40965;52.368;9.712;2022-10-24T16:18:47;100204.94;;;15.21;82.81
55068;BME280;40965;52.368;9.712;2022-10-24T16:21:34;100210.34;;;15.18;83.07
55068;BME280;40965;52.368;9.712;2022-10-24T16:24:21;100216.78;;;15.09;83.20
55068;BME280;40965;52.368;9.712;2022-10-24T16:27:08;100212.59;;;15.03;83.56
55068;BME280;40965;52.368;9.712;2022-10-24T16:29:55;100201.34;;;14.98;83.70
55068;BME280;40965;52.368;9.712;2022-10-24T16:32:42;100208.53;;;14.93;84.69
55068;BME280;40965;52.368;9.712;2022-10-24T16:35:32;100206.56;;;15.00;84.15
55068;BME280;40965;52.368;9.712;2022-10-24T16:38:20;100211.31;;;14.88;84.94
55068;BME280;40965;52.368;9.712;2022-10-24T16:41:13;100224.66;;;14.84;85.42